Weather at Lillehammer Heliport, Innlandet Hospital

Public forecast

Using degrees Celsius for public forecast. Weather courtesy of forecast.io.

Closest aviation weather report (METAR) to Lillehammer Heliport, Innlandet Hospital

Closest report is Oslo Airport, Gardermoen, 58.2 nm (107.8 km) SSE.

2024/05/19 23:20 (retrieved 25 minutes ago)

ENGM 192320Z 02012KT CAVOK 13/M02 Q1017

Closest aviation forecast (TAF) to Lillehammer Heliport, Innlandet Hospital

Closest forecast is Oslo Airport, Gardermoen, 58.2 nm (107.8 km) SSE.

2024/05/19 18:00 Correction (retrieved 6 hours ago)

TAF COR ENGM 191700Z 1918/2018 04010KT CAVOK BECMG 2012/2014 17008KT